Artondale, Washington
Current Conditions -  °F | °C
As of 4:11 PM on Friday 28 Nov 2014 (Local Time) from KTIW Reporting Station
Light Rain Light Rain  
Wind Chill:   Ceiling: 1100
Heat Index:   Visibility: 4mi
Dew Point:   Wind: 7mph
Humidity: 93%   Direction: NA
Pressure: 29.49"   Gusts: NA
Location:  47.2986°N, 122.616°W
Report Text: KTIW 290011Z VRB06KT 4SM -RA BR SCT006 BKN011 OVC024 04/03 A2949 RMK AO2 P0001 T00390028
Loading
Personal Weather Stations






























Interactive Weather Map New forecast layout! Learn more

10-Day Weather Forecast

Advertisements
Track Severe Weather on mobile